Time;durP1;ratioP1;P1;durP2;ratioP2;P2;SDS_P1;SDS_P2;PMS_P1;PMS_P2;Temp;Humidity;BMP_temperature;BMP_pressure;BME280_temperature;BME280_humidity;BME280_pressure;Samples;Min_cycle;Max_cycle;Signal;HPM_P1;HPM_P2
2022/03/26 00:00:54;;;;;;;121.45;68.30;;;;;;;;;;4973538;28;21069;-81
2022/03/26 00:03:21;;;;;;;122.20;69.83;;;;;;;;;;4973501;28;20431;-81
2022/03/26 00:05:47;;;;;;;114.85;66.60;;;;;;;;;;4969757;28;20434;-81
2022/03/26 00:08:13;;;;;;;130.87;73.63;;;;;;;;;;4971052;28;20443;-81
2022/03/26 00:10:40;;;;;;;131.05;74.95;;;;;;;;;;4970457;28;20847;-82
2022/03/26 00:13:09;;;;;;;131.25;72.18;;;;;;;;;;4971410;28;20419;-81
2022/03/26 00:15:35;;;;;;;128.68;72.63;;;;;;;;;;4971456;28;20443;-81
2022/03/26 00:18:02;;;;;;;127.70;72.90;;;;;;;;;;4969633;28;20502;-81
2022/03/26 00:20:28;;;;;;;131.88;71.53;;;;;;;;;;4971703;28;20432;-81
2022/03/26 00:22:54;;;;;;;125.25;69.72;;;;;;;;;;4974850;28;20419;-81
2022/03/26 00:25:21;;;;;;;129.35;70.28;;;;;;;;;;4974441;28;20428;-81
2022/03/26 00:27:48;;;;;;;131.40;73.20;;;;;;;;;;4973583;28;20443;-81
2022/03/26 00:30:16;;;;;;;131.65;73.00;;;;;;;;;;4972957;28;20451;-81
2022/03/26 00:32:42;;;;;;;127.50;71.65;;;;;;;;;;4972547;28;20432;-81
2022/03/26 00:35:10;;;;;;;131.00;72.65;;;;;;;;;;4974157;28;20917;-81
2022/03/26 00:37:36;;;;;;;133.15;70.10;;;;;;;;;;4971450;28;20451;-81
2022/03/26 00:40:03;;;;;;;126.03;70.85;;;;;;;;;;4973903;28;20910;-81
2022/03/26 00:42:29;;;;;;;129.15;71.70;;;;;;;;;;4973380;28;21012;-81
2022/03/26 00:44:56;;;;;;;124.88;68.85;;;;;;;;;;4972403;28;20458;-81
2022/03/26 00:47:23;;;;;;;130.75;71.10;;;;;;;;;;4975259;28;20431;-82
2022/03/26 00:49:51;;;;;;;133.82;71.85;;;;;;;;;;4974259;28;20419;-82
2022/03/26 00:52:17;;;;;;;132.88;71.78;;;;;;;;;;4973079;28;20424;-81
2022/03/26 00:54:44;;;;;;;124.67;69.93;;;;;;;;;;4974772;28;20491;-81
2022/03/26 00:57:10;;;;;;;123.28;71.35;;;;;;;;;;4972361;28;20439;-81
2022/03/26 00:59:37;;;;;;;128.10;70.18;;;;;;;;;;4972218;28;20514;-81
2022/03/26 01:02:03;;;;;;;125.10;69.60;;;;;;;;;;4974365;28;20419;-81
2022/03/26 01:04:31;;;;;;;118.35;66.50;;;;;;;;;;4975066;28;20787;-81
2022/03/26 01:06:57;;;;;;;122.97;68.38;;;;;;;;;;4973100;28;20444;-81
2022/03/26 01:09:23;;;;;;;127.85;68.43;;;;;;;;;;4973450;28;21317;-81
2022/03/26 01:11:50;;;;;;;127.45;70.80;;;;;;;;;;4973670;28;20416;-81
2022/03/26 01:14:16;;;;;;;118.55;66.65;;;;;;;;;;4976970;28;20782;-81
2022/03/26 01:16:42;;;;;;;123.60;67.37;;;;;;;;;;4975597;28;20442;-81
2022/03/26 01:19:10;;;;;;;117.15;63.72;;;;;;;;;;4974614;28;20443;-81
2022/03/26 01:21:37;;;;;;;127.17;68.17;;;;;;;;;;4975301;28;20813;-81
2022/03/26 01:24:04;;;;;;;118.85;67.53;;;;;;;;;;4973545;28;21748;-81
2022/03/26 01:26:30;;;;;;;123.40;66.45;;;;;;;;;;4976038;28;20918;-81
2022/03/26 01:28:56;;;;;;;122.38;67.00;;;;;;;;;;4977474;28;20455;-81
2022/03/26 01:31:23;;;;;;;116.50;64.90;;;;;;;;;;4978093;28;20420;-81
2022/03/26 01:33:49;;;;;;;119.03;63.97;;;;;;;;;;4977061;28;20969;-81
2022/03/26 01:36:16;;;;;;;115.43;63.70;;;;;;;;;;4974002;28;20431;-81
2022/03/26 01:38:43;;;;;;;118.60;64.33;;;;;;;;;;4976452;28;20427;-81
2022/03/26 01:41:10;;;;;;;121.80;68.00;;;;;;;;;;4976870;28;20419;-81
2022/03/26 01:43:36;;;;;;;114.47;63.92;;;;;;;;;;4977296;28;20429;-81
2022/03/26 01:46:03;;;;;;;124.35;67.18;;;;;;;;;;4978507;28;21050;-81
2022/03/26 01:48:29;;;;;;;121.93;66.90;;;;;;;;;;4975418;28;20766;-81
2022/03/26 01:50:55;;;;;;;123.35;68.28;;;;;;;;;;4976972;28;20431;-81
2022/03/26 01:53:22;;;;;;;124.05;66.65;;;;;;;;;;4975907;28;20428;-81
2022/03/26 01:55:50;;;;;;;128.43;69.18;;;;;;;;;;4977381;28;20421;-82
2022/03/26 01:58:16;;;;;;;121.20;69.43;;;;;;;;;;4976246;28;20428;-81
2022/03/26 02:00:42;;;;;;;130.40;70.93;;;;;;;;;;4977830;28;20420;-81
2022/03/26 02:03:10;;;;;;;131.15;70.45;;;;;;;;;;4974976;28;20435;-81
2022/03/26 02:05:36;;;;;;;125.13;69.00;;;;;;;;;;4976645;28;20571;-81
2022/03/26 02:08:03;;;;;;;116.68;64.72;;;;;;;;;;4975888;28;20431;-82
2022/03/26 02:10:29;;;;;;;126.03;68.75;;;;;;;;;;4976347;28;20432;-81
2022/03/26 02:12:58;;;;;;;119.85;65.65;;;;;;;;;;4978409;28;20905;-81
2022/03/26 02:15:25;;;;;;;120.30;69.00;;;;;;;;;;4977026;28;21110;-81
2022/03/26 02:17:51;;;;;;;129.82;68.78;;;;;;;;;;4977399;28;20416;-81
2022/03/26 02:20:20;;;;;;;131.20;71.38;;;;;;;;;;4977767;28;20418;-81
2022/03/26 02:22:47;;;;;;;124.38;67.28;;;;;;;;;;4976671;28;20436;-81
2022/03/26 02:25:13;;;;;;;130.25;67.93;;;;;;;;;;4977206;28;20435;-81
2022/03/26 02:27:39;;;;;;;130.57;70.07;;;;;;;;;;4977427;28;20431;-82
2022/03/26 02:30:06;;;;;;;141.90;71.97;;;;;;;;;;4979652;28;20439;-81
2022/03/26 02:32:33;;;;;;;128.40;70.25;;;;;;;;;;4980232;28;20476;-81
2022/03/26 02:34:59;;;;;;;128.00;71.63;;;;;;;;;;4982855;28;20416;-81
2022/03/26 02:37:26;;;;;;;130.50;67.85;;;;;;;;;;4980878;28;20436;-81
2022/03/26 02:39:53;;;;;;;133.75;70.22;;;;;;;;;;4976111;28;20916;-81
2022/03/26 02:42:19;;;;;;;124.73;67.10;;;;;;;;;;4981543;28;21000;-81
2022/03/26 02:44:45;;;;;;;120.80;67.45;;;;;;;;;;4978594;28;20821;-80
2022/03/26 02:47:12;;;;;;;127.93;69.00;;;;;;;;;;4982530;28;20431;-81
2022/03/26 02:49:38;;;;;;;121.15;68.38;;;;;;;;;;4981149;28;20424;-81
2022/03/26 02:52:05;;;;;;;126.10;66.55;;;;;;;;;;4981041;28;20440;-81
2022/03/26 02:54:33;;;;;;;111.25;62.75;;;;;;;;;;4981597;28;20416;-81
2022/03/26 02:56:59;;;;;;;129.63;68.18;;;;;;;;;;4980351;28;20756;-80
2022/03/26 02:59:26;;;;;;;122.25;65.43;;;;;;;;;;4982349;28;20431;-82
2022/03/26 03:01:52;;;;;;;130.48;68.18;;;;;;;;;;5040372;23;20403;-78
2022/03/26 03:04:20;;;;;;;126.22;68.30;;;;;;;;;;5041323;28;20775;-78
2022/03/26 03:06:46;;;;;;;122.25;69.78;;;;;;;;;;5038301;28;20927;-78
2022/03/26 03:09:12;;;;;;;117.57;63.97;;;;;;;;;;5039922;28;20417;-78
2022/03/26 03:11:40;;;;;;;128.97;68.93;;;;;;;;;;5024964;28;20434;-78
2022/03/26 03:14:06;;;;;;;121.37;65.93;;;;;;;;;;5023573;28;20403;-78
2022/03/26 03:16:33;;;;;;;150.00;74.60;;;;;;;;;;5021170;28;20462;-78
2022/03/26 03:18:59;;;;;;;139.63;73.20;;;;;;;;;;5020629;28;20966;-77
2022/03/26 03:21:25;;;;;;;137.35;73.72;;;;;;;;;;5020476;28;20443;-77
2022/03/26 03:23:52;;;;;;;153.77;75.53;;;;;;;;;;5020281;28;20914;-77
2022/03/26 03:26:18;;;;;;;137.60;74.30;;;;;;;;;;5022011;28;20417;-79
2022/03/26 03:28:46;;;;;;;139.40;73.60;;;;;;;;;;5021419;28;20930;-78
2022/03/26 03:31:12;;;;;;;135.98;72.10;;;;;;;;;;5021852;28;20420;-78
2022/03/26 03:33:38;;;;;;;133.25;70.60;;;;;;;;;;5019650;28;20983;-79
2022/03/26 03:36:05;;;;;;;130.67;68.57;;;;;;;;;;5020783;28;20423;-78
2022/03/26 03:38:32;;;;;;;135.63;72.15;;;;;;;;;;5016538;28;20507;-77
2022/03/26 03:40:58;;;;;;;129.67;70.60;;;;;;;;;;5019463;28;20933;-77
2022/03/26 03:43:25;;;;;;;130.02;69.70;;;;;;;;;;5018449;28;20425;-79
2022/03/26 03:45:52;;;;;;;125.28;65.28;;;;;;;;;;5022017;28;20443;-78
2022/03/26 03:48:19;;;;;;;130.80;69.55;;;;;;;;;;5020564;28;20809;-78
2022/03/26 03:50:46;;;;;;;139.13;71.25;;;;;;;;;;5020658;28;20504;-77
2022/03/26 03:53:13;;;;;;;140.95;73.13;;;;;;;;;;5020390;28;20943;-78
2022/03/26 03:55:39;;;;;;;139.52;75.25;;;;;;;;;;5021732;28;20437;-77
2022/03/26 03:58:05;;;;;;;147.43;77.28;;;;;;;;;;5019031;28;20824;-78
2022/03/26 04:00:32;;;;;;;140.50;72.82;;;;;;;;;;5020529;28;20425;-75
2022/03/26 04:03:00;;;;;;;134.98;69.32;;;;;;;;;;5020391;28;20435;-77
2022/03/26 04:05:27;;;;;;;145.90;75.10;;;;;;;;;;5021322;28;20428;-79
2022/03/26 04:07:53;;;;;;;146.52;74.55;;;;;;;;;;5019748;28;20922;-77
2022/03/26 04:10:19;;;;;;;143.90;75.82;;;;;;;;;;5019760;28;20433;-78
2022/03/26 04:12:45;;;;;;;149.32;75.47;;;;;;;;;;5020435;28;20785;-78
2022/03/26 04:15:12;;;;;;;148.02;76.45;;;;;;;;;;5019532;28;20429;-77
2022/03/26 04:17:39;;;;;;;149.70;75.90;;;;;;;;;;5020245;28;21115;-77
2022/03/26 04:20:08;;;;;;;136.95;73.07;;;;;;;;;;5021307;28;20462;-78
2022/03/26 04:22:35;;;;;;;149.00;78.50;;;;;;;;;;5018787;28;20454;-77
2022/03/26 04:25:01;;;;;;;148.02;75.45;;;;;;;;;;5019861;28;20428;-79
2022/03/26 04:27:28;;;;;;;142.77;74.57;;;;;;;;;;5016695;28;20440;-78
2022/03/26 04:29:54;;;;;;;148.85;74.30;;;;;;;;;;5018128;28;21031;-78
2022/03/26 04:32:20;;;;;;;141.95;72.75;;;;;;;;;;5016267;28;20432;-77
2022/03/26 04:34:46;;;;;;;133.95;70.70;;;;;;;;;;5021123;28;20436;-77
2022/03/26 04:37:14;;;;;;;136.90;71.05;;;;;;;;;;5020343;28;20868;-77
2022/03/26 04:39:40;;;;;;;136.38;70.15;;;;;;;;;;5019617;28;21612;-78
2022/03/26 04:42:07;;;;;;;131.48;69.30;;;;;;;;;;5018025;28;20419;-77
2022/03/26 04:44:33;;;;;;;146.00;71.63;;;;;;;;;;5018909;28;20901;-77
2022/03/26 04:47:00;;;;;;;141.13;73.07;;;;;;;;;;5022373;28;20412;-77
2022/03/26 04:49:26;;;;;;;134.67;71.90;;;;;;;;;;5023405;28;20910;-77
2022/03/26 04:51:52;;;;;;;143.38;71.60;;;;;;;;;;5021863;28;20474;-77
2022/03/26 04:54:20;;;;;;;136.15;69.65;;;;;;;;;;5019930;28;20477;-77
2022/03/26 04:56:46;;;;;;;133.35;70.35;;;;;;;;;;5023021;28;20440;-77
2022/03/26 04:59:13;;;;;;;134.23;69.22;;;;;;;;;;5021738;28;20832;-77
2022/03/26 05:01:41;;;;;;;128.00;67.15;;;;;;;;;;5022848;28;20426;-78
2022/03/26 05:04:07;;;;;;;127.22;67.63;;;;;;;;;;5021351;28;20428;-77
2022/03/26 05:06:33;;;;;;;138.38;71.38;;;;;;;;;;5022102;28;20428;-76
2022/03/26 05:09:00;;;;;;;128.13;67.97;;;;;;;;;;5022708;28;20541;-77
2022/03/26 05:11:28;;;;;;;138.63;71.60;;;;;;;;;;5021122;28;20947;-77
2022/03/26 05:13:54;;;;;;;138.27;71.17;;;;;;;;;;5020467;28;20815;-77
2022/03/26 05:16:20;;;;;;;136.23;69.07;;;;;;;;;;5021144;28;20431;-77
2022/03/26 05:18:47;;;;;;;134.07;70.78;;;;;;;;;;5022128;28;20434;-78
2022/03/26 05:21:13;;;;;;;137.45;68.07;;;;;;;;;;5026230;28;20601;-77
2022/03/26 05:23:40;;;;;;;129.52;66.60;;;;;;;;;;5021222;28;20416;-79
2022/03/26 05:26:06;;;;;;;132.23;68.53;;;;;;;;;;5025227;28;20931;-77
2022/03/26 05:28:34;;;;;;;137.55;69.78;;;;;;;;;;5021080;28;20431;-78
2022/03/26 05:31:00;;;;;;;135.43;71.65;;;;;;;;;;5023620;28;20429;-77
2022/03/26 05:33:27;;;;;;;144.23;73.63;;;;;;;;;;5023127;28;20425;-77
2022/03/26 05:35:53;;;;;;;136.02;71.70;;;;;;;;;;5023399;28;21154;-79
2022/03/26 05:38:19;;;;;;;131.00;69.28;;;;;;;;;;5018357;28;20436;-78
2022/03/26 05:40:46;;;;;;;133.32;68.65;;;;;;;;;;5022805;28;20434;-78
2022/03/26 05:43:12;;;;;;;146.25;73.65;;;;;;;;;;5022769;28;20431;-78
2022/03/26 05:45:40;;;;;;;139.13;71.22;;;;;;;;;;5022332;28;20929;-77
2022/03/26 05:48:07;;;;;;;141.43;72.60;;;;;;;;;;5021065;28;20419;-77
2022/03/26 05:50:34;;;;;;;143.70;73.90;;;;;;;;;;5022690;28;20469;-77
2022/03/26 05:53:00;;;;;;;147.40;74.97;;;;;;;;;;5018717;28;20784;-78
2022/03/26 05:55:27;;;;;;;138.32;72.20;;;;;;;;;;5022517;28;20514;-77
2022/03/26 05:57:53;;;;;;;136.30;71.25;;;;;;;;;;5027149;28;20432;-77
2022/03/26 06:00:19;;;;;;;132.60;68.35;;;;;;;;;;5019728;28;20440;-78
2022/03/26 06:02:47;;;;;;;135.35;71.30;;;;;;;;;;5024281;28;20431;-77
2022/03/26 06:05:14;;;;;;;140.23;71.60;;;;;;;;;;5025326;28;20431;-77
2022/03/26 06:07:40;;;;;;;142.35;72.35;;;;;;;;;;5030170;28;20444;-77
2022/03/26 06:10:07;;;;;;;141.90;72.93;;;;;;;;;;5024932;28;20494;-77
2022/03/26 06:12:34;;;;;;;140.25;70.60;;;;;;;;;;5026586;28;20906;-77
2022/03/26 06:15:02;;;;;;;141.75;72.55;;;;;;;;;;5025619;28;20439;-77
2022/03/26 06:17:28;;;;;;;150.93;78.10;;;;;;;;;;5024409;28;20444;-77
2022/03/26 06:19:56;;;;;;;155.13;79.32;;;;;;;;;;5026265;28;20788;-76
2022/03/26 06:22:22;;;;;;;162.25;81.43;;;;;;;;;;5028460;28;20450;-77
2022/03/26 06:24:48;;;;;;;167.60;83.40;;;;;;;;;;5025866;28;20912;-77
2022/03/26 06:27:15;;;;;;;172.10;84.07;;;;;;;;;;5027205;28;20430;-77
2022/03/26 06:29:42;;;;;;;173.18;87.10;;;;;;;;;;5019862;28;20439;-77
2022/03/26 06:32:09;;;;;;;166.35;82.40;;;;;;;;;;5023456;28;21095;-77
2022/03/26 06:34:35;;;;;;;163.43;81.97;;;;;;;;;;5023106;28;20433;-77
2022/03/26 06:37:02;;;;;;;165.13;82.33;;;;;;;;;;5025080;28;20475;-77
2022/03/26 06:39:29;;;;;;;170.48;85.97;;;;;;;;;;5018833;28;20442;-78
2022/03/26 06:41:56;;;;;;;168.88;83.68;;;;;;;;;;5024033;28;20415;-78
2022/03/26 06:44:22;;;;;;;167.02;86.30;;;;;;;;;;5018981;28;20869;-78
2022/03/26 06:46:48;;;;;;;160.63;80.68;;;;;;;;;;5023166;28;20436;-77
2022/03/26 06:49:15;;;;;;;153.13;80.50;;;;;;;;;;5023686;28;20428;-77
2022/03/26 06:51:41;;;;;;;152.55;78.53;;;;;;;;;;5020788;28;20427;-77
2022/03/26 06:54:09;;;;;;;147.00;77.53;;;;;;;;;;5022211;28;20955;-76
2022/03/26 06:56:35;;;;;;;155.55;80.93;;;;;;;;;;5023225;28;20432;-77
2022/03/26 06:59:01;;;;;;;149.15;78.18;;;;;;;;;;5021327;28;20832;-77
2022/03/26 07:01:28;;;;;;;148.55;81.00;;;;;;;;;;5020132;28;20486;-78
2022/03/26 07:03:54;;;;;;;147.40;79.55;;;;;;;;;;5020962;28;20431;-77
2022/03/26 07:06:22;;;;;;;148.55;81.35;;;;;;;;;;5020900;28;20431;-78
2022/03/26 07:08:49;;;;;;;144.32;78.57;;;;;;;;;;5019249;28;20430;-78
2022/03/26 07:11:17;;;;;;;141.50;76.68;;;;;;;;;;5021265;28;20751;-78
2022/03/26 07:13:43;;;;;;;140.30;78.70;;;;;;;;;;5020669;28;20529;-77
2022/03/26 07:16:09;;;;;;;137.75;78.65;;;;;;;;;;5023225;28;20434;-77
2022/03/26 07:18:35;;;;;;;136.32;74.93;;;;;;;;;;5021297;28;20493;-77
2022/03/26 07:21:02;;;;;;;140.88;78.07;;;;;;;;;;5023974;28;20435;-77
2022/03/26 07:23:28;;;;;;;131.55;74.15;;;;;;;;;;5018878;28;20427;-78
2022/03/26 07:25:55;;;;;;;134.68;74.00;;;;;;;;;;5018656;28;20508;-78
2022/03/26 07:28:23;;;;;;;135.55;74.88;;;;;;;;;;5021976;28;20423;-79
2022/03/26 07:30:50;;;;;;;124.73;71.00;;;;;;;;;;5021001;28;20441;-78
2022/03/26 07:33:16;;;;;;;129.05;72.75;;;;;;;;;;5022325;28;20479;-79
2022/03/26 07:35:42;;;;;;;125.18;73.05;;;;;;;;;;5024677;28;20427;-78
2022/03/26 07:38:08;;;;;;;125.05;73.72;;;;;;;;;;5020179;28;20502;-77
2022/03/26 07:40:35;;;;;;;118.40;68.55;;;;;;;;;;5020435;28;20439;-78
2022/03/26 07:43:02;;;;;;;119.15;69.85;;;;;;;;;;5022069;28;20783;-78
2022/03/26 07:45:30;;;;;;;118.75;67.88;;;;;;;;;;5024442;28;20462;-78
2022/03/26 07:47:56;;;;;;;115.45;66.97;;;;;;;;;;5021603;28;20426;-77
2022/03/26 07:50:23;;;;;;;114.25;68.30;;;;;;;;;;5025523;28;20530;-78
2022/03/26 07:52:49;;;;;;;110.28;65.05;;;;;;;;;;5021797;28;20844;-79
2022/03/26 07:55:15;;;;;;;110.13;65.20;;;;;;;;;;5019995;28;20970;-77
2022/03/26 07:57:42;;;;;;;103.38;64.20;;;;;;;;;;5022217;28;20908;-78
2022/03/26 08:00:09;;;;;;;104.50;60.70;;;;;;;;;;5027458;28;20426;-79
2022/03/26 08:02:36;;;;;;;108.68;62.55;;;;;;;;;;5021176;28;20420;-79
2022/03/26 08:05:03;;;;;;;102.88;64.45;;;;;;;;;;5023281;28;20890;-78
2022/03/26 08:07:29;;;;;;;101.35;61.92;;;;;;;;;;5022777;28;20482;-78
2022/03/26 08:09:55;;;;;;;99.90;60.85;;;;;;;;;;5020185;28;20442;-76
2022/03/26 08:12:21;;;;;;;97.45;58.47;;;;;;;;;;5021795;28;20424;-78
2022/03/26 08:14:48;;;;;;;89.43;54.03;;;;;;;;;;5024361;28;20484;-78
2022/03/26 08:17:15;;;;;;;84.15;51.35;;;;;;;;;;5028472;28;20764;-78
2022/03/26 08:19:42;;;;;;;88.45;52.95;;;;;;;;;;5021144;28;20429;-76
2022/03/26 08:22:08;;;;;;;81.53;51.30;;;;;;;;;;5019534;28;20424;-79
2022/03/26 08:24:35;;;;;;;85.25;51.38;;;;;;;;;;5022454;28;20439;-77
2022/03/26 08:27:01;;;;;;;86.85;52.20;;;;;;;;;;5021040;28;20409;-78
2022/03/26 08:29:28;;;;;;;81.90;51.22;;;;;;;;;;5020883;28;20440;-78
2022/03/26 08:31:54;;;;;;;73.80;48.63;;;;;;;;;;5017382;28;20413;-79
2022/03/26 08:34:21;;;;;;;68.30;45.60;;;;;;;;;;5019800;28;20435;-80
2022/03/26 08:36:49;;;;;;;73.68;46.83;;;;;;;;;;5017456;28;20925;-79
2022/03/26 08:39:15;;;;;;;75.10;45.40;;;;;;;;;;5020621;28;20442;-78
2022/03/26 08:41:41;;;;;;;62.50;41.20;;;;;;;;;;5019802;28;20596;-79
2022/03/26 08:44:08;;;;;;;62.10;42.65;;;;;;;;;;5021827;28;20418;-78
2022/03/26 08:46:34;;;;;;;62.38;41.60;;;;;;;;;;5021200;28;20435;-79
2022/03/26 08:49:01;;;;;;;56.03;38.33;;;;;;;;;;5021350;28;20988;-78
2022/03/26 08:51:27;;;;;;;55.50;37.30;;;;;;;;;;5021007;28;20570;-78
2022/03/26 08:53:55;;;;;;;55.95;35.83;;;;;;;;;;5019626;28;20905;-79
2022/03/26 08:56:21;;;;;;;58.72;37.88;;;;;;;;;;5019723;28;20435;-78
2022/03/26 08:58:47;;;;;;;56.23;37.33;;;;;;;;;;5020306;28;20424;-80
2022/03/26 09:01:13;;;;;;;56.10;38.33;;;;;;;;;;5049940;23;20452;-82
2022/03/26 09:03:40;;;;;;;59.10;36.75;;;;;;;;;;5033564;28;20863;-82
2022/03/26 09:06:07;;;;;;;53.63;34.70;;;;;;;;;;5039204;28;20460;-82
2022/03/26 09:08:33;;;;;;;50.55;33.85;;;;;;;;;;5033025;28;20469;-83
2022/03/26 09:11:02;;;;;;;43.95;32.28;;;;;;;;;;5034098;28;20478;-84
2022/03/26 09:13:28;;;;;;;47.92;31.05;;;;;;;;;;5037635;28;20867;-83
2022/03/26 09:15:55;;;;;;;46.45;32.17;;;;;;;;;;5038764;28;20421;-82
2022/03/26 09:18:22;;;;;;;46.08;31.13;;;;;;;;;;5039375;28;20984;-83
2022/03/26 09:20:48;;;;;;;51.17;32.95;;;;;;;;;;5037096;28;20980;-83
2022/03/26 09:23:15;;;;;;;43.35;29.27;;;;;;;;;;5039242;28;20818;-83
2022/03/26 09:25:41;;;;;;;44.58;29.83;;;;;;;;;;5038495;28;20507;-83
2022/03/26 09:28:10;;;;;;;39.20;27.45;;;;;;;;;;5034402;28;20791;-83
2022/03/26 09:30:36;;;;;;;38.33;26.08;;;;;;;;;;5040535;28;20415;-83
2022/03/26 09:33:02;;;;;;;33.90;22.50;;;;;;;;;;5040431;28;20425;-84
2022/03/26 09:35:28;;;;;;;26.65;18.13;;;;;;;;;;5032135;28;20438;-84
2022/03/26 09:37:55;;;;;;;21.67;17.25;;;;;;;;;;5043001;28;20423;-84
2022/03/26 09:40:23;;;;;;;23.17;16.33;;;;;;;;;;5040545;28;20431;-83
2022/03/26 09:42:50;;;;;;;26.70;18.15;;;;;;;;;;5043054;28;20425;-84
2022/03/26 09:45:17;;;;;;;23.08;16.80;;;;;;;;;;5040395;28;20456;-82
2022/03/26 09:47:44;;;;;;;26.80;17.55;;;;;;;;;;5042672;28;20477;-83
2022/03/26 09:50:10;;;;;;;26.00;18.85;;;;;;;;;;5042577;28;20966;-83
2022/03/26 09:52:37;;;;;;;28.40;20.08;;;;;;;;;;5040579;28;20418;-84
2022/03/26 09:55:03;;;;;;;30.10;20.63;;;;;;;;;;5039390;28;20433;-84
2022/03/26 09:57:30;;;;;;;30.45;21.02;;;;;;;;;;5040607;28;20433;-82
2022/03/26 09:59:57;;;;;;;33.05;21.98;;;;;;;;;;5041896;28;20453;-82
2022/03/26 10:02:25;;;;;;;35.60;22.05;;;;;;;;;;5039865;28;20417;-83
2022/03/26 10:04:52;;;;;;;30.93;21.53;;;;;;;;;;5039359;28;20952;-83
2022/03/26 10:07:18;;;;;;;30.08;22.35;;;;;;;;;;5041969;28;20483;-83
2022/03/26 10:09:45;;;;;;;30.20;21.60;;;;;;;;;;5038754;28;20857;-81
2022/03/26 10:12:12;;;;;;;32.20;22.60;;;;;;;;;;5039954;28;20843;-83
2022/03/26 10:14:39;;;;;;;31.05;22.63;;;;;;;;;;5041644;28;20954;-83
2022/03/26 10:17:10;;;;;;;27.88;20.40;;;;;;;;;;5039538;28;20419;-83
2022/03/26 10:19:37;;;;;;;31.93;22.30;;;;;;;;;;5037998;28;20435;-83
2022/03/26 10:22:03;;;;;;;27.92;19.35;;;;;;;;;;5039782;28;20489;-83
2022/03/26 10:24:30;;;;;;;25.20;18.20;;;;;;;;;;5038099;28;20435;-83
2022/03/26 10:26:58;;;;;;;26.73;18.65;;;;;;;;;;5040632;28;20535;-83
2022/03/26 10:29:25;;;;;;;31.90;20.65;;;;;;;;;;5039286;28;20516;-82
2022/03/26 10:34:35;;;;;;;24.58;17.65;;;;;;;;;;5039148;28;21001;-83
2022/03/26 10:37:03;;;;;;;23.03;16.60;;;;;;;;;;5033870;28;20972;-83
2022/03/26 10:39:30;;;;;;;23.60;16.60;;;;;;;;;;5042783;28;20429;-83
2022/03/26 10:41:57;;;;;;;22.33;15.95;;;;;;;;;;5037531;28;20513;-83
2022/03/26 10:44:24;;;;;;;21.38;16.13;;;;;;;;;;5042617;28;20421;-84
2022/03/26 10:46:52;;;;;;;20.77;15.30;;;;;;;;;;5039844;28;20818;-84
2022/03/26 10:49:29;;;;;;;14.88;11.40;;;;;;;;;;5036328;28;20929;-83
2022/03/26 10:51:55;;;;;;;17.05;10.60;;;;;;;;;;5039401;28;20413;-83
2022/03/26 10:54:29;;;;;;;16.70;11.15;;;;;;;;;;5040192;28;20430;-83
2022/03/26 10:56:56;;;;;;;14.23;11.40;;;;;;;;;;5037814;28;20486;-83
2022/03/26 10:59:23;;;;;;;13.35;10.23;;;;;;;;;;5035918;28;20440;-84
2022/03/26 11:01:49;;;;;;;14.43;10.73;;;;;;;;;;5038162;28;20403;-83
2022/03/26 11:04:15;;;;;;;11.27;10.00;;;;;;;;;;5038962;28;20438;-84
2022/03/26 11:06:42;;;;;;;14.77;9.90;;;;;;;;;;5036602;28;20437;-84
2022/03/26 11:09:08;;;;;;;13.00;8.63;;;;;;;;;;5039014;28;20462;-84
2022/03/26 11:11:37;;;;;;;11.98;9.70;;;;;;;;;;5033980;28;20431;-84
2022/03/26 11:14:06;;;;;;;12.75;9.45;;;;;;;;;;5034491;28;20437;-84
2022/03/26 11:16:37;;;;;;;11.75;9.73;;;;;;;;;;5037294;28;20429;-84
2022/03/26 11:19:09;;;;;;;14.85;10.15;;;;;;;;;;5038694;28;20877;-84
2022/03/26 11:21:58;;;;;;;11.95;9.10;;;;;;;;;;5040728;28;20429;-83
2022/03/26 11:24:43;;;;;;;11.05;8.73;;;;;;;;;;5040353;28;20424;-84
2022/03/26 11:27:18;;;;;;;10.57;8.00;;;;;;;;;;5026816;28;20413;-82
2022/03/26 11:29:49;;;;;;;12.65;10.00;;;;;;;;;;5033480;28;20429;-82
2022/03/26 11:32:18;;;;;;;10.93;8.85;;;;;;;;;;5040583;28;20413;-83
2022/03/26 11:34:46;;;;;;;13.37;9.40;;;;;;;;;;5038888;28;20425;-81
2022/03/26 11:37:12;;;;;;;13.60;9.43;;;;;;;;;;5037669;28;20445;-83
2022/03/26 11:39:46;;;;;;;11.85;9.85;;;;;;;;;;5040341;28;20859;-84
2022/03/26 11:42:13;;;;;;;14.02;9.43;;;;;;;;;;5039148;28;20425;-83
2022/03/26 11:44:44;;;;;;;10.02;8.57;;;;;;;;;;5037783;28;20431;-84
2022/03/26 11:52:40;;;;;;;14.43;9.13;;;;;;;;;;5039786;28;21033;-83
2022/03/26 11:55:24;;;;;;;12.93;9.27;;;;;;;;;;5036251;28;20911;-84
2022/03/26 11:58:12;;;;;;;13.23;10.23;;;;;;;;;;5039506;28;20799;-83
2022/03/26 12:00:52;;;;;;;16.93;10.50;;;;;;;;;;5038074;28;20533;-84
2022/03/26 12:03:21;;;;;;;15.15;10.18;;;;;;;;;;5037936;28;20475;-84
2022/03/26 12:08:34;;;;;;;10.73;8.77;;;;;;;;;;5034942;28;20428;-84
2022/03/26 12:11:00;;;;;;;9.95;8.63;;;;;;;;;;5037702;28;20439;-83
2022/03/26 12:13:32;;;;;;;15.15;9.65;;;;;;;;;;5038847;28;20437;-84
2022/03/26 12:15:59;;;;;;;13.67;9.47;;;;;;;;;;5036363;28;20489;-84
2022/03/26 12:18:31;;;;;;;15.70;9.30;;;;;;;;;;5038761;28;20467;-84
2022/03/26 12:21:05;;;;;;;13.47;8.80;;;;;;;;;;5036798;28;20919;-85
2022/03/26 12:23:34;;;;;;;14.98;8.77;;;;;;;;;;5035828;28;20418;-84
2022/03/26 12:26:01;;;;;;;14.47;9.13;;;;;;;;;;5029577;28;20430;-83
2022/03/26 12:28:33;;;;;;;11.93;7.57;;;;;;;;;;5036634;28;20426;-84
2022/03/26 12:31:04;;;;;;;10.13;6.93;;;;;;;;;;5035842;28;20439;-84
2022/03/26 12:33:30;;;;;;;9.48;7.57;;;;;;;;;;5035080;28;20794;-84
2022/03/26 12:35:56;;;;;;;12.38;7.88;;;;;;;;;;5038032;28;20475;-85
2022/03/26 12:38:27;;;;;;;11.18;6.57;;;;;;;;;;5033397;28;20955;-84
2022/03/26 12:40:54;;;;;;;8.02;6.05;;;;;;;;;;5034253;28;20441;-82
2022/03/26 12:43:21;;;;;;;11.00;5.55;;;;;;;;;;5039210;28;20508;-82
2022/03/26 12:45:49;;;;;;;6.43;5.50;;;;;;;;;;5035969;28;20461;-82
2022/03/26 12:48:16;;;;;;;8.10;5.88;;;;;;;;;;5034287;28;20421;-83
2022/03/26 12:50:43;;;;;;;7.78;6.00;;;;;;;;;;5038067;28;20441;-84
2022/03/26 12:53:10;;;;;;;7.72;5.75;;;;;;;;;;5038000;28;20460;-83
2022/03/26 12:55:36;;;;;;;7.07;5.47;;;;;;;;;;5036523;28;20950;-82
2022/03/26 13:01:07;;;;;;;7.70;5.37;;;;;;;;;;5021765;28;20433;-83
2022/03/26 13:03:34;;;;;;;6.20;5.37;;;;;;;;;;5036205;28;20429;-84
2022/03/26 13:06:03;;;;;;;6.53;4.93;;;;;;;;;;5040165;28;20602;-83
2022/03/26 13:08:29;;;;;;;6.00;4.18;;;;;;;;;;5040992;28;20498;-83
2022/03/26 13:10:55;;;;;;;7.03;4.03;;;;;;;;;;5043292;28;20431;-83
2022/03/26 13:13:22;;;;;;;4.90;3.15;;;;;;;;;;5039386;28;20453;-83
2022/03/26 13:16:01;;;;;;;4.60;3.00;;;;;;;;;;5042631;28;20458;-82
2022/03/26 13:18:28;;;;;;;5.03;3.10;;;;;;;;;;5039412;28;20431;-82
2022/03/26 13:20:56;;;;;;;3.35;2.45;;;;;;;;;;5043834;28;20902;-83
2022/03/26 13:23:27;;;;;;;2.60;2.40;;;;;;;;;;5042538;28;20425;-82
2022/03/26 13:25:55;;;;;;;2.63;2.42;;;;;;;;;;5042764;28;20919;-82
2022/03/26 13:28:22;;;;;;;3.45;2.33;;;;;;;;;;5038923;28;20451;-82
2022/03/26 13:30:49;;;;;;;4.30;2.58;;;;;;;;;;5036881;28;20443;-82
2022/03/26 13:33:18;;;;;;;2.33;2.13;;;;;;;;;;5042003;28;20449;-81
2022/03/26 13:35:50;;;;;;;4.15;2.70;;;;;;;;;;5035309;28;20435;-81
2022/03/26 13:38:16;;;;;;;2.78;2.30;;;;;;;;;;5040756;28;20426;-82
2022/03/26 13:40:43;;;;;;;4.20;2.85;;;;;;;;;;5038924;28;20437;-82
2022/03/26 13:43:11;;;;;;;3.78;3.38;;;;;;;;;;5040963;28;20438;-82
2022/03/26 13:45:37;;;;;;;3.38;3.08;;;;;;;;;;5042946;28;20419;-82
2022/03/26 13:48:04;;;;;;;4.43;3.25;;;;;;;;;;5037620;28;21084;-82
2022/03/26 13:50:30;;;;;;;4.78;4.05;;;;;;;;;;5038970;28;20435;-81
2022/03/26 13:52:58;;;;;;;5.23;4.20;;;;;;;;;;5035499;28;20427;-82
2022/03/26 13:55:28;;;;;;;6.78;4.90;;;;;;;;;;5041977;28;20915;-83
2022/03/26 13:57:56;;;;;;;6.05;5.10;;;;;;;;;;5040753;28;20485;-82
2022/03/26 14:00:22;;;;;;;7.80;5.60;;;;;;;;;;5035769;28;21066;-82
2022/03/26 14:02:49;;;;;;;7.83;5.80;;;;;;;;;;5038228;28;21005;-82
2022/03/26 14:05:19;;;;;;;8.37;5.80;;;;;;;;;;5043456;28;20409;-82
2022/03/26 14:07:46;;;;;;;6.72;5.82;;;;;;;;;;5041516;28;20426;-82
2022/03/26 14:10:14;;;;;;;9.65;5.60;;;;;;;;;;5041160;28;20501;-82
2022/03/26 14:12:40;;;;;;;7.20;5.70;;;;;;;;;;5037373;28;20436;-82
2022/03/26 14:15:07;;;;;;;7.95;6.05;;;;;;;;;;5041051;28;20855;-82
2022/03/26 14:17:33;;;;;;;5.43;4.57;;;;;;;;;;5038948;28;20468;-82
2022/03/26 14:19:59;;;;;;;5.95;5.35;;;;;;;;;;5036065;28;20458;-82
2022/03/26 14:22:26;;;;;;;6.57;4.70;;;;;;;;;;5046228;28;20501;-82
2022/03/26 14:24:52;;;;;;;6.28;5.68;;;;;;;;;;5048781;28;20409;-82
2022/03/26 14:27:19;;;;;;;6.35;5.07;;;;;;;;;;5042212;28;20429;-80